createdAt,value
2022-11-19T00:00:29.820Z,74.76
2022-11-19T00:05:31.303Z,74.56
2022-11-19T00:10:35.083Z,75.04
2022-11-19T00:15:37.516Z,75.00
2022-11-19T00:20:38.912Z,75.12
2022-11-19T00:25:40.292Z,75.51
2022-11-19T00:30:48.035Z,75.92
2022-11-19T00:35:50.020Z,76.64
2022-11-19T00:40:51.620Z,75.81
2022-11-19T00:45:53.024Z,76.44
2022-11-19T00:50:54.444Z,75.02
2022-11-19T00:55:55.926Z,74.41
2022-11-19T01:00:57.534Z,75.19
2022-11-19T01:05:59.366Z,75.61
2022-11-19T01:11:25.745Z,75.34
2022-11-19T01:16:33.140Z,75.89
2022-11-19T01:21:35.973Z,75.64
2022-11-19T01:26:40.520Z,75.39
2022-11-19T01:31:44.378Z,75.35
2022-11-19T01:36:45.845Z,74.55
2022-11-19T01:41:47.303Z,74.32
2022-11-19T01:46:48.703Z,73.82
2022-11-19T01:51:58.362Z,74.20
2022-11-19T01:57:03.012Z,74.09
2022-11-19T02:02:04.877Z,74.42
2022-11-19T02:07:09.427Z,73.71
2022-11-19T02:12:25.885Z,73.65
2022-11-19T02:18:00.705Z,74.33
2022-11-19T02:23:27.979Z,74.08
2022-11-19T02:28:43.278Z,74.83
2022-11-19T02:33:56.215Z,74.19
2022-11-19T02:39:12.103Z,73.98
2022-11-19T02:44:29.001Z,74.28
2022-11-19T02:49:34.100Z,74.23
2022-11-19T02:54:35.630Z,73.92
2022-11-19T02:59:41.644Z,73.31
2022-11-19T03:04:43.289Z,73.14
2022-11-19T03:09:52.879Z,72.85
2022-11-19T03:15:02.351Z,72.80
2022-11-19T03:20:24.952Z,73.50
2022-11-19T03:25:32.508Z,74.50
2022-11-19T03:30:34.314Z,75.89
2022-11-19T03:35:58.553Z,75.72
2022-11-19T03:41:03.126Z,75.69
2022-11-19T03:46:10.047Z,75.07
2022-11-19T03:51:17.728Z,74.93
2022-11-19T03:56:23.831Z,74.80
2022-11-19T04:01:25.365Z,75.57
2022-11-19T04:06:26.978Z,76.22
2022-11-19T04:11:28.368Z,74.64
2022-11-19T04:16:29.876Z,75.37
2022-11-19T04:21:31.402Z,75.37
2022-11-19T04:26:32.786Z,74.94
2022-11-19T04:31:34.209Z,75.66
2022-11-19T04:36:36.235Z,76.03
2022-11-19T04:41:38.749Z,76.28
2022-11-19T04:46:40.187Z,75.38
2022-11-19T04:51:41.601Z,74.45
2022-11-19T04:56:43.028Z,73.94
2022-11-19T05:01:44.473Z,75.24
2022-11-19T05:06:45.947Z,74.47
2022-11-19T05:11:47.380Z,74.99
2022-11-19T05:16:48.841Z,75.34
2022-11-19T05:21:50.294Z,74.82
2022-11-19T05:26:51.700Z,75.27
2022-11-19T05:31:53.143Z,74.48
2022-11-19T05:36:54.598Z,74.57
2022-11-19T05:41:56.566Z,73.45
2022-11-19T05:46:58.016Z,73.63
2022-11-19T05:51:59.491Z,74.19
2022-11-19T05:57:00.888Z,75.78
2022-11-19T06:02:02.370Z,75.50
2022-11-19T06:07:04.334Z,75.31
2022-11-19T06:12:06.150Z,75.45
2022-11-19T06:17:07.623Z,75.45
2022-11-19T06:22:09.893Z,74.99
2022-11-19T06:27:11.451Z,75.17
2022-11-19T06:32:12.853Z,75.44
2022-11-19T06:37:14.309Z,74.74
2022-11-19T06:42:15.801Z,75.04
2022-11-19T06:47:17.313Z,74.97
2022-11-19T06:52:18.711Z,74.78
2022-11-19T06:57:20.180Z,75.89
2022-11-19T07:02:21.943Z,75.64
2022-11-19T07:07:23.600Z,75.61
2022-11-19T07:12:25.181Z,76.09
2022-11-19T07:17:26.683Z,76.22
2022-11-19T07:22:28.073Z,75.40
2022-11-19T07:27:29.465Z,75.12
2022-11-19T07:32:30.903Z,75.56
2022-11-19T07:37:32.389Z,75.27
2022-11-19T07:42:33.818Z,74.16
2022-11-19T07:47:42.554Z,73.45
2022-11-19T07:52:44.451Z,73.19
2022-11-19T07:57:45.862Z,73.93
2022-11-19T08:02:47.253Z,73.42
2022-11-19T08:07:48.701Z,73.54
2022-11-19T08:12:50.136Z,73.57
2022-11-19T08:17:51.554Z,72.55
2022-11-19T08:22:53.042Z,72.14
2022-11-19T08:27:54.478Z,71.80
2022-11-19T08:32:56.061Z,73.03
2022-11-19T08:37:57.492Z,73.31
2022-11-19T08:42:58.915Z,72.72
2022-11-19T08:48:02.579Z,73.10
2022-11-19T08:53:05.467Z,72.87
2022-11-19T08:58:07.600Z,72.28
2022-11-19T09:03:09.028Z,71.57
2022-11-19T09:08:10.502Z,71.18
2022-11-19T09:13:11.916Z,69.90
2022-11-19T09:18:13.317Z,69.31
2022-11-19T09:23:14.767Z,68.71
2022-11-19T09:28:16.235Z,69.46
2022-11-19T09:33:17.649Z,68.05
2022-11-19T09:38:19.280Z,65.53
2022-11-19T09:43:53.239Z,64.01
2022-11-19T09:48:59.344Z,63.20
2022-11-19T09:54:13.134Z,63.29
2022-11-19T09:59:24.384Z,64.55
2022-11-19T10:04:31.477Z,62.71
2022-11-19T10:09:59.686Z,63.09
2022-11-19T10:15:29.245Z,61.89
2022-11-19T10:21:23.324Z,61.81
2022-11-19T10:26:39.077Z,62.56
2022-11-19T10:31:47.778Z,60.92
2022-11-19T10:36:49.141Z,57.69
2022-11-19T10:41:58.196Z,52.79
2022-11-19T10:47:00.739Z,51.38
2022-11-19T10:52:02.647Z,54.40
2022-11-19T10:57:04.232Z,54.52
2022-11-19T11:02:35.196Z,55.43
2022-11-19T11:07:50.789Z,55.98
2022-11-19T11:12:53.338Z,57.38
2022-11-19T11:18:03.547Z,58.24
2022-11-19T11:23:24.993Z,57.02
2022-11-19T11:28:26.491Z,57.13
2022-11-19T11:33:36.938Z,55.79
2022-11-19T11:38:44.912Z,56.51
2022-11-19T11:43:55.701Z,55.97
2022-11-19T11:49:04.000Z,56.21
2022-11-19T11:54:18.898Z,54.89
2022-11-19T11:59:29.942Z,44.20
2022-11-19T12:04:32.374Z,39.20
2022-11-19T12:10:03.008Z,43.31
2022-11-19T12:15:18.528Z,47.55
2022-11-19T12:20:47.383Z,52.13
2022-11-19T12:26:16.378Z,54.16
2022-11-19T12:31:42.368Z,56.71
2022-11-19T12:37:16.490Z,56.98
2022-11-19T12:42:42.741Z,58.13
2022-11-19T12:48:01.649Z,57.22
2022-11-19T12:53:19.051Z,55.11
2022-11-19T12:58:36.212Z,54.59
2022-11-19T13:04:14.268Z,55.34
2022-11-19T13:09:32.327Z,55.59
2022-11-19T13:14:44.543Z,55.25
2022-11-19T13:19:51.188Z,53.47
2022-11-19T13:25:18.332Z,53.71
2022-11-19T13:30:24.462Z,54.28
2022-11-19T13:35:49.202Z,55.43
2022-11-19T13:41:10.994Z,56.19
2022-11-19T13:46:24.711Z,56.14
2022-11-19T13:51:40.247Z,55.59
2022-11-19T13:56:48.378Z,56.54
2022-11-19T14:02:04.356Z,55.97
2022-11-19T14:07:32.042Z,55.74
2022-11-19T14:12:45.356Z,56.69
2022-11-19T14:18:14.067Z,57.25
2022-11-19T14:23:37.317Z,58.44
2022-11-19T14:28:50.538Z,60.05
2022-11-19T14:34:01.984Z,60.67
2022-11-19T14:39:12.010Z,59.01
2022-11-19T14:44:32.862Z,59.90
2022-11-19T14:49:36.904Z,59.70
2022-11-19T14:54:43.336Z,60.55
2022-11-19T14:59:48.567Z,58.96
2022-11-19T15:05:07.272Z,58.14
2022-11-19T15:10:09.789Z,58.73
2022-11-19T15:15:20.385Z,60.24
2022-11-19T15:20:33.468Z,60.32
2022-11-19T15:26:03.051Z,60.77
2022-11-19T15:31:43.871Z,61.16
2022-11-19T15:36:48.911Z,60.83
2022-11-19T15:41:55.708Z,61.28
2022-11-19T15:47:00.572Z,61.61
2022-11-19T15:52:17.337Z,61.35
2022-11-19T15:57:27.171Z,61.47
2022-11-19T16:02:33.224Z,61.95
2022-11-19T16:07:34.791Z,61.79
2022-11-19T16:12:36.313Z,61.92
2022-11-19T16:17:44.491Z,62.09
2022-11-19T16:22:48.530Z,62.35
2022-11-19T16:27:50.158Z,62.60
2022-11-19T16:32:51.885Z,64.10
2022-11-19T16:37:54.624Z,65.15
2022-11-19T16:42:59.637Z,65.47
2022-11-19T16:48:02.249Z,65.18
2022-11-19T16:53:06.316Z,64.29
2022-11-19T16:58:15.461Z,64.95
2022-11-19T17:03:22.783Z,64.45
2022-11-19T17:08:27.964Z,64.04
2022-11-19T17:13:32.040Z,64.00
2022-11-19T17:18:33.586Z,63.80
2022-11-19T17:23:47.713Z,64.94
2022-11-19T17:28:51.831Z,64.39
2022-11-19T17:34:06.968Z,64.89
2022-11-19T17:39:12.602Z,64.94
2022-11-19T17:44:23.088Z,66.46
2022-11-19T17:49:24.767Z,66.64
2022-11-19T17:54:26.499Z,67.04
2022-11-19T17:59:28.039Z,66.79
2022-11-19T18:04:29.496Z,67.88
2022-11-19T18:09:34.769Z,67.08
2022-11-19T18:14:36.555Z,67.32
2022-11-19T18:19:38.053Z,67.42
2022-11-19T18:24:39.514Z,67.50
2022-11-19T18:29:40.936Z,67.56
2022-11-19T18:34:43.572Z,69.15
2022-11-19T18:39:44.969Z,69.48
2022-11-19T18:44:46.515Z,69.97
2022-11-19T18:49:47.894Z,70.48
2022-11-19T18:54:49.368Z,70.30
2022-11-19T18:59:50.854Z,69.58
2022-11-19T19:04:52.348Z,68.37
2022-11-19T19:09:55.002Z,68.35
2022-11-19T19:14:56.519Z,69.01
2022-11-19T19:19:57.980Z,68.79
2022-11-19T19:24:59.453Z,68.63
2022-11-19T19:30:01.011Z,68.08
2022-11-19T19:35:02.484Z,68.16
2022-11-19T19:40:04.324Z,68.48
2022-11-19T19:45:06.258Z,68.27
2022-11-19T19:50:08.034Z,68.58
2022-11-19T19:55:09.549Z,69.30
2022-11-19T20:00:11.528Z,69.07
2022-11-19T20:05:15.949Z,69.20
2022-11-19T20:10:17.456Z,69.47
2022-11-19T20:15:19.108Z,70.46
2022-11-19T20:20:20.564Z,69.67
2022-11-19T20:25:22.023Z,69.23
2022-11-19T20:30:23.551Z,69.68
2022-11-19T20:35:25.009Z,69.53
2022-11-19T20:40:26.471Z,70.27
2022-11-19T20:45:27.946Z,69.83
2022-11-19T20:50:29.415Z,69.79
2022-11-19T20:55:30.881Z,70.54
2022-11-19T21:00:32.335Z,70.77
2022-11-19T21:05:33.754Z,70.90
2022-11-19T21:10:35.166Z,70.91
2022-11-19T21:15:36.592Z,71.30
2022-11-19T21:20:38.014Z,71.26
2022-11-19T21:25:39.506Z,72.42
2022-11-19T21:30:41.141Z,72.57
2022-11-19T21:35:42.568Z,72.11
2022-11-19T21:40:44.011Z,72.35
2022-11-19T21:45:45.911Z,72.04
2022-11-19T21:50:47.987Z,72.27
2022-11-19T21:55:49.454Z,72.81
2022-11-19T22:00:50.914Z,72.46
2022-11-19T22:06:05.646Z,72.47
2022-11-19T22:11:09.013Z,71.54
2022-11-19T22:16:10.419Z,71.50
2022-11-19T22:21:12.111Z,71.70
2022-11-19T22:26:14.439Z,70.98
2022-11-19T22:31:15.834Z,70.25
2022-11-19T22:36:19.064Z,70.22
2022-11-19T22:41:21.679Z,71.23
2022-11-19T22:46:23.204Z,70.13
2022-11-19T22:51:25.933Z,71.29
2022-11-19T22:56:29.345Z,71.05
2022-11-19T23:01:32.984Z,71.92
2022-11-19T23:06:36.004Z,72.01
2022-11-19T23:11:37.502Z,71.47
2022-11-19T23:16:40.322Z,71.24
2022-11-19T23:21:41.870Z,71.28
2022-11-19T23:26:43.357Z,70.76
2022-11-19T23:31:44.884Z,71.11
2022-11-19T23:36:46.377Z,71.17
2022-11-19T23:41:48.422Z,71.17
2022-11-19T23:46:49.857Z,71.99
2022-11-19T23:51:51.264Z,71.48
2022-11-19T23:56:52.787Z,71.65
